This is the latest recevied weather packets stored in our database for station/object SP3WRO-2. If no packets are shown the sender has not sent any weather packets the latest 10 day(s).
| Time | Temp. | Humidity | Pressure | Rain* | Wind** | Luminosity | Snow |
|---|---|---|---|---|---|---|---|
| 1787922853 | 25° C | 51% | 1008.8 hPa | - | - | 154 W/m² | - |
| 1787921953 | 24.44° C | 50% | 1008.6 hPa | - | - | 156 W/m² | - |
| 1787921051 | 24.44° C | 50% | 1008.8 hPa | - | - | 93 W/m² | - |
| 1787920150 | 24.44° C | 50% | 1008.7 hPa | - | - | 129 W/m² | - |
| 1787919249 | 25° C | 49% | 1008.7 hPa | - | - | 167 W/m² | - |
| 1787918349 | 25° C | 49% | 1008.9 hPa | - | - | 225 W/m² | - |
| 1787917447 | 25.56° C | 48% | 1009.1 hPa | - | - | 333 W/m² | - |
| 1787916546 | 25° C | 49% | 1009.2 hPa | - | - | 534 W/m² | - |
| 1787915645 | 25° C | 49% | 1009.5 hPa | - | - | 316 W/m² | - |
| 1787914744 | 23.89° C | 51% | 1009.7 hPa | - | - | 634 W/m² | - |
| 1787913843 | 23.89° C | 51% | 1010.3 hPa | - | - | 628 W/m² | - |
| 1787912943 | 23.33° C | 51% | 1010.4 hPa | - | - | 640 W/m² | - |
| 1787912042 | 22.78° C | 54% | 1010.6 hPa | - | - | 288 W/m² | - |
| 1787911141 | 22.78° C | 54% | 1010.7 hPa | - | - | 325 W/m² | - |
| 1787910240 | 21.67° C | 54% | 1010.6 hPa | - | - | 259 W/m² | - |
| 1787909339 | 21.67° C | 54% | 1010.8 hPa | - | - | 196 W/m² | - |
| 1787908438 | 21.11° C | 56% | 1011.2 hPa | - | - | 265 W/m² | - |
| 1787907537 | 20.56° C | 57% | 1011.5 hPa | - | - | 176 W/m² | - |
| 1787906636 | 20.56° C | 57% | 1011.8 hPa | - | - | 203 W/m² | - |
| 1787905735 | 20.56° C | 55% | 1012.2 hPa | - | - | 427 W/m² | - |
| 1787904834 | 20.56° C | 54% | 1012.5 hPa | - | - | 528 W/m² | - |
| 1787903933 | 20° C | 57% | 1012.9 hPa | - | - | 325 W/m² | - |
| 1787903032 | 19.44° C | 57% | 1012.9 hPa | - | - | 241 W/m² | - |
| 1787902131 | 19.44° C | 56% | 1012.8 hPa | - | - | 194 W/m² | - |
| 1787901231 | 19.44° C | 57% | 1013 hPa | - | - | 172 W/m² | - |
* Rain since midnight (hover to see other rain measurements)
** Current wind speed in m/s (hover to see current wind gust speed)